sensor_id;sensor_type;location;lat;lon;timestamp;temperature;humidity
10051;DHT22;5065;46.942;7.432;2022-07-01T00:00:43;19.00;99.90
10051;DHT22;5065;46.942;7.432;2022-07-01T00:03:11;19.00;99.90
10051;DHT22;5065;46.942;7.432;2022-07-01T00:05:38;19.10;99.90
10051;DHT22;5065;46.942;7.432;2022-07-01T00:08:05;19.00;99.90
10051;DHT22;5065;46.942;7.432;2022-07-01T00:10:33;19.10;99.90
10051;DHT22;5065;46.942;7.432;2022-07-01T00:13:03;19.10;99.90
10051;DHT22;5065;46.942;7.432;2022-07-01T00:15:32;19.20;99.90
10051;DHT22;5065;46.942;7.432;2022-07-01T00:17:59;19.20;99.90
10051;DHT22;5065;46.942;7.432;2022-07-01T00:20:26;19.20;99.90
10051;DHT22;5065;46.942;7.432;2022-07-01T00:22:54;19.20;99.90
10051;DHT22;5065;46.942;7.432;2022-07-01T00:25:21;19.20;99.90
10051;DHT22;5065;46.942;7.432;2022-07-01T00:27:48;19.30;99.90
10051;DHT22;5065;46.942;7.432;2022-07-01T00:30:17;19.20;99.90
10051;DHT22;5065;46.942;7.432;2022-07-01T00:32:44;19.30;99.90
10051;DHT22;5065;46.942;7.432;2022-07-01T00:35:12;19.30;99.90
10051;DHT22;5065;46.942;7.432;2022-07-01T00:37:39;19.40;99.90
10051;DHT22;5065;46.942;7.432;2022-07-01T00:40:07;19.30;99.90
10051;DHT22;5065;46.942;7.432;2022-07-01T00:42:38;19.40;99.90
10051;DHT22;5065;46.942;7.432;2022-07-01T00:45:07;19.40;99.90
10051;DHT22;5065;46.942;7.432;2022-07-01T00:47:37;19.40;99.90
10051;DHT22;5065;46.942;7.432;2022-07-01T00:50:07;19.40;99.90
10051;DHT22;5065;46.942;7.432;2022-07-01T00:52:36;19.40;99.90
10051;DHT22;5065;46.942;7.432;2022-07-01T00:55:04;19.30;99.90
10051;DHT22;5065;46.942;7.432;2022-07-01T00:57:34;19.30;99.90
10051;DHT22;5065;46.942;7.432;2022-07-01T01:00:03;19.30;99.90
10051;DHT22;5065;46.942;7.432;2022-07-01T01:02:31;19.30;99.90
10051;DHT22;5065;46.942;7.432;2022-07-01T01:04:59;19.30;99.90
10051;DHT22;5065;46.942;7.432;2022-07-01T01:07:27;19.30;99.90
10051;DHT22;5065;46.942;7.432;2022-07-01T01:09:54;19.30;99.90
10051;DHT22;5065;46.942;7.432;2022-07-01T01:12:21;19.20;99.90
10051;DHT22;5065;46.942;7.432;2022-07-01T01:14:49;19.20;99.90
10051;DHT22;5065;46.942;7.432;2022-07-01T01:17:18;19.20;99.90
10051;DHT22;5065;46.942;7.432;2022-07-01T01:19:48;19.20;99.90
10051;DHT22;5065;46.942;7.432;2022-07-01T01:22:17;19.20;99.90
10051;DHT22;5065;46.942;7.432;2022-07-01T01:24:45;19.10;99.90
10051;DHT22;5065;46.942;7.432;2022-07-01T01:27:14;19.10;99.90
10051;DHT22;5065;46.942;7.432;2022-07-01T01:29:43;19.10;99.90
10051;DHT22;5065;46.942;7.432;2022-07-01T01:32:10;19.10;99.90
10051;DHT22;5065;46.942;7.432;2022-07-01T01:34:38;19.10;99.90
10051;DHT22;5065;46.942;7.432;2022-07-01T01:37:08;19.10;99.90
10051;DHT22;5065;46.942;7.432;2022-07-01T01:39:37;19.10;99.90
10051;DHT22;5065;46.942;7.432;2022-07-01T01:42:05;19.10;99.90
10051;DHT22;5065;46.942;7.432;2022-07-01T01:44:33;19.10;99.90
10051;DHT22;5065;46.942;7.432;2022-07-01T01:47:00;19.10;99.90
10051;DHT22;5065;46.942;7.432;2022-07-01T01:49:28;19.10;99.90
10051;DHT22;5065;46.942;7.432;2022-07-01T01:51:56;19.10;99.90
10051;DHT22;5065;46.942;7.432;2022-07-01T01:54:27;19.10;99.90
10051;DHT22;5065;46.942;7.432;2022-07-01T01:56:56;19.10;99.90
10051;DHT22;5065;46.942;7.432;2022-07-01T01:59:23;19.10;99.90
10051;DHT22;5065;46.942;7.432;2022-07-01T02:01:50;19.00;99.90
10051;DHT22;5065;46.942;7.432;2022-07-01T02:04:18;19.00;99.90
10051;DHT22;5065;46.942;7.432;2022-07-01T02:06:45;19.00;99.90
10051;DHT22;5065;46.942;7.432;2022-07-01T02:09:12;19.00;99.90
10051;DHT22;5065;46.942;7.432;2022-07-01T02:11:40;19.00;99.90
10051;DHT22;5065;46.942;7.432;2022-07-01T02:14:08;18.90;99.90
10051;DHT22;5065;46.942;7.432;2022-07-01T02:16:36;18.90;99.90
10051;DHT22;5065;46.942;7.432;2022-07-01T02:19:03;18.90;99.90
10051;DHT22;5065;46.942;7.432;2022-07-01T02:21:32;18.90;99.90
10051;DHT22;5065;46.942;7.432;2022-07-01T02:23:59;18.90;99.90
10051;DHT22;5065;46.942;7.432;2022-07-01T02:26:26;18.80;99.90
10051;DHT22;5065;46.942;7.432;2022-07-01T02:28:53;18.80;99.90
10051;DHT22;5065;46.942;7.432;2022-07-01T02:31:22;18.90;99.90
10051;DHT22;5065;46.942;7.432;2022-07-01T02:33:49;18.80;99.90
10051;DHT22;5065;46.942;7.432;2022-07-01T02:36:16;18.80;99.90
10051;DHT22;5065;46.942;7.432;2022-07-01T02:38:43;18.80;99.90
10051;DHT22;5065;46.942;7.432;2022-07-01T02:41:10;18.80;99.90
10051;DHT22;5065;46.942;7.432;2022-07-01T02:43:38;18.80;99.90
10051;DHT22;5065;46.942;7.432;2022-07-01T02:46:05;18.80;99.90
10051;DHT22;5065;46.942;7.432;2022-07-01T02:48:33;18.80;99.90
10051;DHT22;5065;46.942;7.432;2022-07-01T02:51:01;18.80;99.90
10051;DHT22;5065;46.942;7.432;2022-07-01T02:53:28;18.80;99.90
10051;DHT22;5065;46.942;7.432;2022-07-01T02:55:55;18.80;99.90
10051;DHT22;5065;46.942;7.432;2022-07-01T02:58:25;18.80;99.90
10051;DHT22;5065;46.942;7.432;2022-07-01T03:00:52;18.80;99.90
10051;DHT22;5065;46.942;7.432;2022-07-01T03:03:20;18.70;99.90
10051;DHT22;5065;46.942;7.432;2022-07-01T03:05:48;18.70;99.90
10051;DHT22;5065;46.942;7.432;2022-07-01T03:08:16;18.70;99.90
10051;DHT22;5065;46.942;7.432;2022-07-01T03:10:43;18.70;99.90
10051;DHT22;5065;46.942;7.432;2022-07-01T03:13:10;18.70;99.90
10051;DHT22;5065;46.942;7.432;2022-07-01T03:15:37;18.70;99.90
10051;DHT22;5065;46.942;7.432;2022-07-01T03:18:04;18.70;99.90
10051;DHT22;5065;46.942;7.432;2022-07-01T03:20:32;18.70;99.90
10051;DHT22;5065;46.942;7.432;2022-07-01T03:23:00;18.70;99.90
10051;DHT22;5065;46.942;7.432;2022-07-01T03:25:27;18.70;99.90
10051;DHT22;5065;46.942;7.432;2022-07-01T03:27:55;18.70;99.90
10051;DHT22;5065;46.942;7.432;2022-07-01T03:30:23;18.70;99.90
10051;DHT22;5065;46.942;7.432;2022-07-01T03:32:50;18.60;99.90
10051;DHT22;5065;46.942;7.432;2022-07-01T03:35:17;18.60;99.90
10051;DHT22;5065;46.942;7.432;2022-07-01T03:38:06;18.50;99.90
10051;DHT22;5065;46.942;7.432;2022-07-01T03:40:34;18.50;99.90
10051;DHT22;5065;46.942;7.432;2022-07-01T03:43:02;18.40;99.90
10051;DHT22;5065;46.942;7.432;2022-07-01T03:45:30;18.40;99.90
10051;DHT22;5065;46.942;7.432;2022-07-01T03:47:57;18.40;99.90
10051;DHT22;5065;46.942;7.432;2022-07-01T03:50:25;18.30;99.90
10051;DHT22;5065;46.942;7.432;2022-07-01T03:52:52;18.30;99.90
10051;DHT22;5065;46.942;7.432;2022-07-01T03:55:35;18.30;99.90
10051;DHT22;5065;46.942;7.432;2022-07-01T03:58:02;18.20;99.90
10051;DHT22;5065;46.942;7.432;2022-07-01T04:00:31;18.10;99.90
10051;DHT22;5065;46.942;7.432;2022-07-01T04:02:59;18.10;99.90
10051;DHT22;5065;46.942;7.432;2022-07-01T04:05:27;18.10;99.90
10051;DHT22;5065;46.942;7.432;2022-07-01T04:07:54;18.00;99.90
10051;DHT22;5065;46.942;7.432;2022-07-01T04:10:21;18.00;99.90
10051;DHT22;5065;46.942;7.432;2022-07-01T04:12:50;17.90;99.90
10051;DHT22;5065;46.942;7.432;2022-07-01T04:15:17;17.90;99.90
10051;DHT22;5065;46.942;7.432;2022-07-01T04:17:45;18.00;99.90
10051;DHT22;5065;46.942;7.432;2022-07-01T04:20:12;17.90;99.90
10051;DHT22;5065;46.942;7.432;2022-07-01T04:22:41;17.90;99.90
10051;DHT22;5065;46.942;7.432;2022-07-01T04:25:07;17.80;99.90
10051;DHT22;5065;46.942;7.432;2022-07-01T04:27:35;17.80;99.90
10051;DHT22;5065;46.942;7.432;2022-07-01T04:30:04;17.80;99.90
10051;DHT22;5065;46.942;7.432;2022-07-01T04:32:31;17.80;99.90
10051;DHT22;5065;46.942;7.432;2022-07-01T04:34:58;17.80;99.90
10051;DHT22;5065;46.942;7.432;2022-07-01T04:37:26;17.80;99.90
10051;DHT22;5065;46.942;7.432;2022-07-01T04:39:53;17.80;99.90
10051;DHT22;5065;46.942;7.432;2022-07-01T04:42:20;17.80;99.90
10051;DHT22;5065;46.942;7.432;2022-07-01T04:44:47;17.70;99.90
10051;DHT22;5065;46.942;7.432;2022-07-01T04:47:16;17.70;99.90
10051;DHT22;5065;46.942;7.432;2022-07-01T04:49:43;17.70;99.90
10051;DHT22;5065;46.942;7.432;2022-07-01T04:52:11;17.70;99.90
10051;DHT22;5065;46.942;7.432;2022-07-01T04:54:38;17.70;99.90
10051;DHT22;5065;46.942;7.432;2022-07-01T04:57:05;17.70;99.90
10051;DHT22;5065;46.942;7.432;2022-07-01T04:59:32;17.60;99.90
10051;DHT22;5065;46.942;7.432;2022-07-01T05:01:59;17.60;99.90
10051;DHT22;5065;46.942;7.432;2022-07-01T05:04:28;17.60;99.90
10051;DHT22;5065;46.942;7.432;2022-07-01T05:06:55;17.50;99.90
10051;DHT22;5065;46.942;7.432;2022-07-01T05:09:22;17.50;99.90
10051;DHT22;5065;46.942;7.432;2022-07-01T05:11:50;17.50;99.90
10051;DHT22;5065;46.942;7.432;2022-07-01T05:14:17;17.50;99.90
10051;DHT22;5065;46.942;7.432;2022-07-01T05:16:44;17.40;99.90
10051;DHT22;5065;46.942;7.432;2022-07-01T05:19:11;17.30;99.90
10051;DHT22;5065;46.942;7.432;2022-07-01T05:21:57;17.30;99.90
10051;DHT22;5065;46.942;7.432;2022-07-01T05:24:29;17.20;99.90
10051;DHT22;5065;46.942;7.432;2022-07-01T05:26:57;17.20;99.90
10051;DHT22;5065;46.942;7.432;2022-07-01T05:29:27;17.20;99.90
10051;DHT22;5065;46.942;7.432;2022-07-01T05:31:54;17.20;99.90
10051;DHT22;5065;46.942;7.432;2022-07-01T05:34:22;17.20;99.90
10051;DHT22;5065;46.942;7.432;2022-07-01T05:36:49;17.30;99.90
10051;DHT22;5065;46.942;7.432;2022-07-01T05:39:17;17.30;99.90
10051;DHT22;5065;46.942;7.432;2022-07-01T05:41:45;17.30;99.90
10051;DHT22;5065;46.942;7.432;2022-07-01T05:44:12;17.40;99.90
10051;DHT22;5065;46.942;7.432;2022-07-01T05:46:39;17.40;99.90
10051;DHT22;5065;46.942;7.432;2022-07-01T05:49:06;17.40;99.90
10051;DHT22;5065;46.942;7.432;2022-07-01T05:51:34;17.30;99.90
10051;DHT22;5065;46.942;7.432;2022-07-01T05:54:01;17.40;99.90
10051;DHT22;5065;46.942;7.432;2022-07-01T05:56:30;17.30;99.90
10051;DHT22;5065;46.942;7.432;2022-07-01T05:58:58;17.30;99.90
10051;DHT22;5065;46.942;7.432;2022-07-01T06:01:25;17.30;99.90
10051;DHT22;5065;46.942;7.432;2022-07-01T06:03:52;17.30;99.90
10051;DHT22;5065;46.942;7.432;2022-07-01T06:06:19;17.30;99.90
10051;DHT22;5065;46.942;7.432;2022-07-01T06:08:46;17.30;99.90
10051;DHT22;5065;46.942;7.432;2022-07-01T06:11:14;17.30;99.90
10051;DHT22;5065;46.942;7.432;2022-07-01T06:13:43;17.30;99.90
10051;DHT22;5065;46.942;7.432;2022-07-01T06:16:12;17.30;99.90
10051;DHT22;5065;46.942;7.432;2022-07-01T06:18:39;17.30;99.90
10051;DHT22;5065;46.942;7.432;2022-07-01T06:21:07;17.30;99.90
10051;DHT22;5065;46.942;7.432;2022-07-01T06:23:34;17.30;99.90
10051;DHT22;5065;46.942;7.432;2022-07-01T06:26:01;17.30;99.90
10051;DHT22;5065;46.942;7.432;2022-07-01T06:28:31;17.30;99.90
10051;DHT22;5065;46.942;7.432;2022-07-01T06:30:59;17.30;99.90
10051;DHT22;5065;46.942;7.432;2022-07-01T06:33:27;17.30;99.90
10051;DHT22;5065;46.942;7.432;2022-07-01T06:35:57;17.30;99.90
10051;DHT22;5065;46.942;7.432;2022-07-01T06:38:28;17.40;99.90
10051;DHT22;5065;46.942;7.432;2022-07-01T06:40:58;17.40;99.90
10051;DHT22;5065;46.942;7.432;2022-07-01T06:43:42;17.40;99.90
10051;DHT22;5065;46.942;7.432;2022-07-01T06:46:11;17.40;99.90
10051;DHT22;5065;46.942;7.432;2022-07-01T06:48:38;17.40;99.90
10051;DHT22;5065;46.942;7.432;2022-07-01T06:51:06;17.40;99.90
10051;DHT22;5065;46.942;7.432;2022-07-01T06:53:33;17.50;99.90
10051;DHT22;5065;46.942;7.432;2022-07-01T06:56:00;17.40;99.90
10051;DHT22;5065;46.942;7.432;2022-07-01T06:58:27;17.50;99.90
10051;DHT22;5065;46.942;7.432;2022-07-01T07:00:55;17.50;99.90
10051;DHT22;5065;46.942;7.432;2022-07-01T07:03:23;17.50;99.90
10051;DHT22;5065;46.942;7.432;2022-07-01T07:05:51;17.60;99.90
10051;DHT22;5065;46.942;7.432;2022-07-01T07:08:18;17.60;99.90
10051;DHT22;5065;46.942;7.432;2022-07-01T07:10:46;17.60;99.90
10051;DHT22;5065;46.942;7.432;2022-07-01T07:13:13;17.60;99.90
10051;DHT22;5065;46.942;7.432;2022-07-01T07:15:40;17.60;99.90
10051;DHT22;5065;46.942;7.432;2022-07-01T07:18:10;17.60;99.90
10051;DHT22;5065;46.942;7.432;2022-07-01T07:20:39;17.70;99.90
10051;DHT22;5065;46.942;7.432;2022-07-01T07:23:07;17.70;99.90
10051;DHT22;5065;46.942;7.432;2022-07-01T07:25:35;17.70;99.90
10051;DHT22;5065;46.942;7.432;2022-07-01T07:28:03;17.80;99.90
10051;DHT22;5065;46.942;7.432;2022-07-01T07:30:30;17.70;99.90
10051;DHT22;5065;46.942;7.432;2022-07-01T07:32:58;17.80;99.90
10051;DHT22;5065;46.942;7.432;2022-07-01T07:35:26;17.70;99.90
10051;DHT22;5065;46.942;7.432;2022-07-01T07:37:54;17.80;99.90
10051;DHT22;5065;46.942;7.432;2022-07-01T07:40:22;17.70;99.90
10051;DHT22;5065;46.942;7.432;2022-07-01T07:42:49;17.80;99.90
10051;DHT22;5065;46.942;7.432;2022-07-01T07:45:17;17.80;99.90
10051;DHT22;5065;46.942;7.432;2022-07-01T07:47:45;17.80;99.90
10051;DHT22;5065;46.942;7.432;2022-07-01T07:50:14;17.90;99.90
10051;DHT22;5065;46.942;7.432;2022-07-01T07:52:42;17.90;99.90
10051;DHT22;5065;46.942;7.432;2022-07-01T07:55:10;17.90;99.90
10051;DHT22;5065;46.942;7.432;2022-07-01T07:57:38;18.00;99.90
10051;DHT22;5065;46.942;7.432;2022-07-01T08:00:07;18.10;99.90
10051;DHT22;5065;46.942;7.432;2022-07-01T08:02:34;18.20;99.90
10051;DHT22;5065;46.942;7.432;2022-07-01T08:05:02;18.30;99.90
10051;DHT22;5065;46.942;7.432;2022-07-01T08:07:29;18.30;99.90
10051;DHT22;5065;46.942;7.432;2022-07-01T08:09:56;18.30;99.90
10051;DHT22;5065;46.942;7.432;2022-07-01T08:12:25;18.30;99.90
10051;DHT22;5065;46.942;7.432;2022-07-01T08:14:52;18.30;99.90
10051;DHT22;5065;46.942;7.432;2022-07-01T08:17:19;18.30;99.90
10051;DHT22;5065;46.942;7.432;2022-07-01T08:19:47;18.30;99.90
10051;DHT22;5065;46.942;7.432;2022-07-01T08:22:15;18.40;99.90
10051;DHT22;5065;46.942;7.432;2022-07-01T08:24:42;18.40;99.90
10051;DHT22;5065;46.942;7.432;2022-07-01T08:27:09;18.40;99.90
10051;DHT22;5065;46.942;7.432;2022-07-01T08:29:39;18.40;99.90
10051;DHT22;5065;46.942;7.432;2022-07-01T08:32:08;18.50;99.90
10051;DHT22;5065;46.942;7.432;2022-07-01T08:34:36;18.50;99.90
10051;DHT22;5065;46.942;7.432;2022-07-01T08:37:03;18.60;99.90
10051;DHT22;5065;46.942;7.432;2022-07-01T08:39:31;18.60;99.90
10051;DHT22;5065;46.942;7.432;2022-07-01T08:41:59;18.60;99.90
10051;DHT22;5065;46.942;7.432;2022-07-01T08:44:26;18.70;99.90
10051;DHT22;5065;46.942;7.432;2022-07-01T08:46:55;18.70;99.90
10051;DHT22;5065;46.942;7.432;2022-07-01T08:49:23;18.80;99.90
10051;DHT22;5065;46.942;7.432;2022-07-01T08:51:50;18.80;99.90
10051;DHT22;5065;46.942;7.432;2022-07-01T08:54:17;18.90;99.90
10051;DHT22;5065;46.942;7.432;2022-07-01T08:56:44;19.00;99.90
10051;DHT22;5065;46.942;7.432;2022-07-01T08:59:13;19.20;99.90
10051;DHT22;5065;46.942;7.432;2022-07-01T09:01:56;19.30;99.90
10051;DHT22;5065;46.942;7.432;2022-07-01T09:04:24;19.40;99.90
10051;DHT22;5065;46.942;7.432;2022-07-01T09:06:52;19.50;99.90
10051;DHT22;5065;46.942;7.432;2022-07-01T09:09:24;19.60;99.90
10051;DHT22;5065;46.942;7.432;2022-07-01T09:11:52;19.70;99.90
10051;DHT22;5065;46.942;7.432;2022-07-01T09:14:23;19.70;99.90
10051;DHT22;5065;46.942;7.432;2022-07-01T09:16:51;19.70;99.90
10051;DHT22;5065;46.942;7.432;2022-07-01T09:19:23;19.70;99.90
10051;DHT22;5065;46.942;7.432;2022-07-01T09:21:51;19.40;99.90
10051;DHT22;5065;46.942;7.432;2022-07-01T09:24:24;19.40;99.90
10051;DHT22;5065;46.942;7.432;2022-07-01T09:26:57;19.40;99.90
10051;DHT22;5065;46.942;7.432;2022-07-01T09:29:28;19.40;99.90
10051;DHT22;5065;46.942;7.432;2022-07-01T09:31:57;19.30;99.90
10051;DHT22;5065;46.942;7.432;2022-07-01T09:34:26;19.30;99.90
10051;DHT22;5065;46.942;7.432;2022-07-01T09:36:54;19.20;99.90
10051;DHT22;5065;46.942;7.432;2022-07-01T09:39:22;19.10;99.90
10051;DHT22;5065;46.942;7.432;2022-07-01T09:41:49;19.10;99.90
10051;DHT22;5065;46.942;7.432;2022-07-01T09:44:16;19.00;99.90
10051;DHT22;5065;46.942;7.432;2022-07-01T09:46:55;19.00;99.90
10051;DHT22;5065;46.942;7.432;2022-07-01T09:49:23;18.90;99.90
10051;DHT22;5065;46.942;7.432;2022-07-01T09:51:52;18.80;99.90
10051;DHT22;5065;46.942;7.432;2022-07-01T09:54:20;18.80;99.90
10051;DHT22;5065;46.942;7.432;2022-07-01T09:56:47;18.70;99.90
10051;DHT22;5065;46.942;7.432;2022-07-01T09:59:14;18.60;99.90
10051;DHT22;5065;46.942;7.432;2022-07-01T10:01:44;18.60;99.90
10051;DHT22;5065;46.942;7.432;2022-07-01T10:04:12;18.50;99.90
10051;DHT22;5065;46.942;7.432;2022-07-01T10:07:13;18.50;99.90
10051;DHT22;5065;46.942;7.432;2022-07-01T10:09:55;18.60;99.90
10051;DHT22;5065;46.942;7.432;2022-07-01T10:12:33;18.60;99.90
10051;DHT22;5065;46.942;7.432;2022-07-01T10:15:01;18.60;99.90
10051;DHT22;5065;46.942;7.432;2022-07-01T10:17:30;18.60;99.90
10051;DHT22;5065;46.942;7.432;2022-07-01T10:20:07;18.60;99.90
10051;DHT22;5065;46.942;7.432;2022-07-01T10:22:37;18.70;99.90
10051;DHT22;5065;46.942;7.432;2022-07-01T10:25:33;18.80;99.90
10051;DHT22;5065;46.942;7.432;2022-07-01T10:28:22;18.80;99.90
10051;DHT22;5065;46.942;7.432;2022-07-01T10:30:58;18.90;99.90
10051;DHT22;5065;46.942;7.432;2022-07-01T10:33:37;19.10;99.90
10051;DHT22;5065;46.942;7.432;2022-07-01T10:36:12;19.10;99.90
10051;DHT22;5065;46.942;7.432;2022-07-01T10:39:10;19.20;99.90
10051;DHT22;5065;46.942;7.432;2022-07-01T10:41:41;19.30;99.90
10051;DHT22;5065;46.942;7.432;2022-07-01T10:44:10;19.50;99.90
10051;DHT22;5065;46.942;7.432;2022-07-01T10:46:39;19.70;99.90
10051;DHT22;5065;46.942;7.432;2022-07-01T10:49:10;19.80;99.90
10051;DHT22;5065;46.942;7.432;2022-07-01T10:51:48;20.10;99.90
10051;DHT22;5065;46.942;7.432;2022-07-01T10:54:49;20.40;99.90
10051;DHT22;5065;46.942;7.432;2022-07-01T10:57:26;20.60;99.90
10051;DHT22;5065;46.942;7.432;2022-07-01T10:59:57;20.70;99.90
10051;DHT22;5065;46.942;7.432;2022-07-01T11:02:44;20.80;99.90
10051;DHT22;5065;46.942;7.432;2022-07-01T11:05:12;20.80;99.90
10051;DHT22;5065;46.942;7.432;2022-07-01T11:07:41;20.80;99.90
10051;DHT22;5065;46.942;7.432;2022-07-01T11:10:14;20.80;99.90
10051;DHT22;5065;46.942;7.432;2022-07-01T11:12:42;20.80;99.90
10051;DHT22;5065;46.942;7.432;2022-07-01T11:15:12;20.60;99.90
10051;DHT22;5065;46.942;7.432;2022-07-01T11:17:42;20.40;99.90
10051;DHT22;5065;46.942;7.432;2022-07-01T11:20:10;20.40;99.90
10051;DHT22;5065;46.942;7.432;2022-07-01T11:22:40;20.40;99.90
10051;DHT22;5065;46.942;7.432;2022-07-01T11:25:09;20.40;99.90
10051;DHT22;5065;46.942;7.432;2022-07-01T11:27:39;20.30;99.90
10051;DHT22;5065;46.942;7.432;2022-07-01T11:30:08;20.20;99.90
10051;DHT22;5065;46.942;7.432;2022-07-01T11:32:39;20.10;99.90
10051;DHT22;5065;46.942;7.432;2022-07-01T11:35:08;20.10;99.90
10051;DHT22;5065;46.942;7.432;2022-07-01T11:37:50;20.00;99.90
10051;DHT22;5065;46.942;7.432;2022-07-01T11:40:32;20.00;99.90
10051;DHT22;5065;46.942;7.432;2022-07-01T11:43:01;19.90;99.90
10051;DHT22;5065;46.942;7.432;2022-07-01T11:45:28;19.90;99.90
10051;DHT22;5065;46.942;7.432;2022-07-01T11:47:55;19.80;99.90
10051;DHT22;5065;46.942;7.432;2022-07-01T11:50:23;19.80;99.90
10051;DHT22;5065;46.942;7.432;2022-07-01T11:52:53;19.80;99.90
10051;DHT22;5065;46.942;7.432;2022-07-01T11:55:21;19.80;99.90
10051;DHT22;5065;46.942;7.432;2022-07-01T11:57:51;19.80;99.90
10051;DHT22;5065;46.942;7.432;2022-07-01T12:00:21;19.80;99.90
10051;DHT22;5065;46.942;7.432;2022-07-01T12:02:49;19.90;99.90
10051;DHT22;5065;46.942;7.432;2022-07-01T12:05:17;20.00;99.90
10051;DHT22;5065;46.942;7.432;2022-07-01T12:07:45;20.10;99.90
10051;DHT22;5065;46.942;7.432;2022-07-01T12:10:14;20.20;99.90
10051;DHT22;5065;46.942;7.432;2022-07-01T12:12:42;20.30;99.90
10051;DHT22;5065;46.942;7.432;2022-07-01T12:15:14;20.40;99.90
10051;DHT22;5065;46.942;7.432;2022-07-01T12:17:42;20.50;99.90
10051;DHT22;5065;46.942;7.432;2022-07-01T12:20:10;20.60;99.90
10051;DHT22;5065;46.942;7.432;2022-07-01T12:22:37;20.70;99.90
10051;DHT22;5065;46.942;7.432;2022-07-01T12:25:09;20.90;99.90
10051;DHT22;5065;46.942;7.432;2022-07-01T12:27:38;21.10;99.90
10051;DHT22;5065;46.942;7.432;2022-07-01T12:30:08;21.10;99.90
10051;DHT22;5065;46.942;7.432;2022-07-01T12:32:37;21.20;99.90
10051;DHT22;5065;46.942;7.432;2022-07-01T12:35:08;21.20;99.90
10051;DHT22;5065;46.942;7.432;2022-07-01T12:37:56;21.30;99.90
10051;DHT22;5065;46.942;7.432;2022-07-01T12:40:24;21.20;99.90
10051;DHT22;5065;46.942;7.432;2022-07-01T12:42:53;21.20;99.90
10051;DHT22;5065;46.942;7.432;2022-07-01T12:45:23;21.00;99.90
10051;DHT22;5065;46.942;7.432;2022-07-01T12:47:51;21.00;99.90
10051;DHT22;5065;46.942;7.432;2022-07-01T12:50:25;21.10;99.90
10051;DHT22;5065;46.942;7.432;2022-07-01T12:52:58;21.10;99.90
10051;DHT22;5065;46.942;7.432;2022-07-01T12:55:25;21.20;99.90
10051;DHT22;5065;46.942;7.432;2022-07-01T12:57:54;21.10;99.90
10051;DHT22;5065;46.942;7.432;2022-07-01T13:00:24;20.90;99.90
10051;DHT22;5065;46.942;7.432;2022-07-01T13:02:54;20.80;99.90
10051;DHT22;5065;46.942;7.432;2022-07-01T13:05:25;20.80;99.90
10051;DHT22;5065;46.942;7.432;2022-07-01T13:07:52;21.00;99.90
10051;DHT22;5065;46.942;7.432;2022-07-01T13:10:19;21.10;99.90
10051;DHT22;5065;46.942;7.432;2022-07-01T13:12:47;21.30;99.90
10051;DHT22;5065;46.942;7.432;2022-07-01T13:15:16;21.40;99.90
10051;DHT22;5065;46.942;7.432;2022-07-01T13:17:46;21.50;99.90
10051;DHT22;5065;46.942;7.432;2022-07-01T13:20:14;21.50;99.90
10051;DHT22;5065;46.942;7.432;2022-07-01T13:22:43;21.60;99.90
10051;DHT22;5065;46.942;7.432;2022-07-01T13:25:12;21.70;99.90
10051;DHT22;5065;46.942;7.432;2022-07-01T13:27:42;21.80;99.90
10051;DHT22;5065;46.942;7.432;2022-07-01T13:30:11;21.80;99.90
10051;DHT22;5065;46.942;7.432;2022-07-01T13:32:39;21.80;99.90
10051;DHT22;5065;46.942;7.432;2022-07-01T13:35:07;21.80;99.90
10051;DHT22;5065;46.942;7.432;2022-07-01T13:37:35;21.60;99.90
10051;DHT22;5065;46.942;7.432;2022-07-01T13:40:05;21.50;99.90
10051;DHT22;5065;46.942;7.432;2022-07-01T13:42:32;21.50;99.90
10051;DHT22;5065;46.942;7.432;2022-07-01T13:44:59;21.60;99.90
10051;DHT22;5065;46.942;7.432;2022-07-01T13:47:27;21.60;99.90
10051;DHT22;5065;46.942;7.432;2022-07-01T13:49:55;21.70;99.90
10051;DHT22;5065;46.942;7.432;2022-07-01T13:52:26;21.70;99.90
10051;DHT22;5065;46.942;7.432;2022-07-01T13:54:57;21.70;99.90
10051;DHT22;5065;46.942;7.432;2022-07-01T13:57:26;21.60;99.90
10051;DHT22;5065;46.942;7.432;2022-07-01T13:59:55;21.60;99.90
10051;DHT22;5065;46.942;7.432;2022-07-01T14:02:23;21.70;99.90
10051;DHT22;5065;46.942;7.432;2022-07-01T14:04:50;21.60;99.90
10051;DHT22;5065;46.942;7.432;2022-07-01T14:07:17;21.60;99.90
10051;DHT22;5065;46.942;7.432;2022-07-01T14:09:45;21.60;99.90
10051;DHT22;5065;46.942;7.432;2022-07-01T14:12:15;21.50;99.90
10051;DHT22;5065;46.942;7.432;2022-07-01T14:14:43;21.50;99.90
10051;DHT22;5065;46.942;7.432;2022-07-01T14:17:11;21.40;99.90
10051;DHT22;5065;46.942;7.432;2022-07-01T14:19:38;21.40;99.90
10051;DHT22;5065;46.942;7.432;2022-07-01T14:22:06;21.40;99.90
10051;DHT22;5065;46.942;7.432;2022-07-01T14:24:39;21.50;99.90
10051;DHT22;5065;46.942;7.432;2022-07-01T14:27:06;21.50;99.90
10051;DHT22;5065;46.942;7.432;2022-07-01T14:29:34;21.50;99.90
10051;DHT22;5065;46.942;7.432;2022-07-01T14:32:03;21.50;99.90
10051;DHT22;5065;46.942;7.432;2022-07-01T14:34:30;21.50;99.90
10051;DHT22;5065;46.942;7.432;2022-07-01T14:36:57;21.50;99.90
10051;DHT22;5065;46.942;7.432;2022-07-01T14:39:25;21.50;99.90
10051;DHT22;5065;46.942;7.432;2022-07-01T14:41:52;21.50;99.90
10051;DHT22;5065;46.942;7.432;2022-07-01T14:44:20;21.50;99.90
10051;DHT22;5065;46.942;7.432;2022-07-01T14:46:48;21.50;99.90
10051;DHT22;5065;46.942;7.432;2022-07-01T14:49:18;21.50;99.90
10051;DHT22;5065;46.942;7.432;2022-07-01T14:51:45;21.60;99.90
10051;DHT22;5065;46.942;7.432;2022-07-01T14:54:14;21.60;99.90
10051;DHT22;5065;46.942;7.432;2022-07-01T14:56:41;21.60;99.90
10051;DHT22;5065;46.942;7.432;2022-07-01T14:59:08;21.70;99.90
10051;DHT22;5065;46.942;7.432;2022-07-01T15:01:37;21.80;99.90
10051;DHT22;5065;46.942;7.432;2022-07-01T15:04:04;21.80;99.90
10051;DHT22;5065;46.942;7.432;2022-07-01T15:06:35;21.80;99.90
10051;DHT22;5065;46.942;7.432;2022-07-01T15:09:04;21.80;99.90
10051;DHT22;5065;46.942;7.432;2022-07-01T15:11:31;21.70;99.90
10051;DHT22;5065;46.942;7.432;2022-07-01T15:13:59;21.70;99.90
10051;DHT22;5065;46.942;7.432;2022-07-01T15:16:27;21.60;99.90
10051;DHT22;5065;46.942;7.432;2022-07-01T15:18:54;21.50;99.90
10051;DHT22;5065;46.942;7.432;2022-07-01T15:21:21;21.30;99.90
10051;DHT22;5065;46.942;7.432;2022-07-01T15:23:51;21.20;99.90
10051;DHT22;5065;46.942;7.432;2022-07-01T15:26:18;21.10;99.90
10051;DHT22;5065;46.942;7.432;2022-07-01T15:28:48;21.00;99.90
10051;DHT22;5065;46.942;7.432;2022-07-01T15:31:15;20.90;99.90
10051;DHT22;5065;46.942;7.432;2022-07-01T15:33:43;20.80;99.90
10051;DHT22;5065;46.942;7.432;2022-07-01T15:36:10;20.70;99.90
10051;DHT22;5065;46.942;7.432;2022-07-01T15:38:41;20.70;99.90
10051;DHT22;5065;46.942;7.432;2022-07-01T15:41:12;20.70;99.90
10051;DHT22;5065;46.942;7.432;2022-07-01T15:43:40;20.70;99.90
10051;DHT22;5065;46.942;7.432;2022-07-01T15:46:07;20.70;99.90
10051;DHT22;5065;46.942;7.432;2022-07-01T15:48:34;20.80;99.90
10051;DHT22;5065;46.942;7.432;2022-07-01T15:51:02;20.90;99.90
10051;DHT22;5065;46.942;7.432;2022-07-01T15:53:29;20.90;99.90
10051;DHT22;5065;46.942;7.432;2022-07-01T15:55:56;20.90;99.90